Time;durP1;ratioP1;P1;durP2;ratioP2;P2;SDS_P1;SDS_P2;PMS_P1;PMS_P2;Temp;Humidity;BMP_temperature;BMP_pressure;BME280_temperature;BME280_humidity;BME280_pressure;Samples;Min_cycle;Max_cycle;Signal;HPM_P1;HPM_P2
2022/12/08 00:00:52;;;;;;;20.90;15.37;;;;;;;-1.33;100.00;96564.88;4978979;28;20242;-72
2022/12/08 00:03:20;;;;;;;16.03;14.33;;;;;;;-1.28;100.00;96570.56;4968316;28;21154;-71
2022/12/08 00:11:20;;;;;;;18.77;14.70;;;;;;;-1.21;100.00;96561.31;4979375;28;20640;-72
2022/12/08 00:13:49;;;;;;;17.67;13.93;;;;;;;-1.21;100.00;96565.69;5026488;28;20206;-68
2022/12/08 00:16:16;;;;;;;16.33;14.67;;;;;;;-1.19;100.00;96556.81;5022356;28;20242;-72
2022/12/08 00:18:44;;;;;;;15.97;14.27;;;;;;;-1.19;100.00;96568.97;4978679;28;20873;-72
2022/12/08 00:21:12;;;;;;;17.93;14.93;;;;;;;-1.20;100.00;96557.75;5023399;28;20692;-71
2022/12/08 00:23:39;;;;;;;16.17;14.47;;;;;;;-1.19;100.00;96556.81;5021081;28;21079;-72
2022/12/08 00:26:07;;;;;;;17.73;15.07;;;;;;;-1.21;100.00;96553.50;4972870;28;23539;-68
2022/12/08 00:28:35;;;;;;;16.17;14.63;;;;;;;-1.22;100.00;96551.88;5025423;28;20211;-71
2022/12/08 00:31:09;;;;;;;15.70;13.97;;;;;;;-1.21;100.00;96548.31;5023283;28;20240;-71
2022/12/08 00:33:37;;;;;;;18.50;15.20;;;;;;;-1.24;100.00;96547.72;5020823;28;21036;-69
2022/12/08 00:36:07;;;;;;;16.63;14.80;;;;;;;-1.23;100.00;96546.78;4968375;28;20339;-70
2022/12/08 00:38:35;;;;;;;19.00;15.63;;;;;;;-1.28;100.00;96547.19;5018560;28;20208;-70
2022/12/08 00:41:03;;;;;;;18.03;15.77;;;;;;;-1.26;100.00;96547.88;4997905;28;20441;-70
2022/12/08 00:43:31;;;;;;;16.63;14.83;;;;;;;-1.26;100.00;96540.06;5023198;28;20489;-69
2022/12/08 00:45:59;;;;;;;19.27;14.73;;;;;;;-1.21;100.00;96553.50;5027348;28;20255;-69
2022/12/08 00:48:28;;;;;;;19.07;15.93;;;;;;;-1.18;100.00;96547.22;5029841;28;20278;-70
2022/12/08 00:50:55;;;;;;;17.87;14.67;;;;;;;-1.23;100.00;96549.38;4973833;28;20212;-70
2022/12/08 00:53:23;;;;;;;17.20;14.37;;;;;;;-1.25;100.00;96546.91;5016400;28;20207;-70
2022/12/08 00:55:51;;;;;;;16.50;14.33;;;;;;;-1.27;100.00;96548.81;5028318;28;20235;-69
2022/12/08 00:58:18;;;;;;;22.10;15.03;;;;;;;-1.26;100.00;96545.28;5003878;28;20422;-70
2022/12/08 01:00:46;;;;;;;19.07;15.40;;;;;;;-1.21;100.00;96539.69;5031365;28;20211;-68
2022/12/08 01:03:14;;;;;;;20.03;15.13;;;;;;;-1.24;100.00;96543.38;5026605;28;20318;-69
2022/12/08 01:05:43;;;;;;;18.07;15.20;;;;;;;-1.28;100.00;96541.97;4974959;28;20716;-69
2022/12/08 01:08:10;;;;;;;17.63;15.73;;;;;;;-1.28;100.00;96534.19;5021005;28;20211;-70
2022/12/08 01:10:38;;;;;;;17.93;15.30;;;;;;;-1.34;100.00;96543.28;5028575;28;20214;-70
2022/12/08 01:13:06;;;;;;;17.03;15.23;;;;;;;-1.34;100.00;96543.28;4998860;28;20195;-70
2022/12/08 01:15:33;;;;;;;16.33;14.27;;;;;;;-1.27;100.00;96548.81;5029783;28;20484;-70
2022/12/08 01:18:02;;;;;;;15.97;14.30;;;;;;;-1.30;100.00;96549.06;5026351;28;20200;-68
2022/12/08 01:20:29;;;;;;;16.90;15.13;;;;;;;-1.29;100.00;96549.88;4979339;28;20223;-68
2022/12/08 01:22:58;;;;;;;19.00;15.43;;;;;;;-1.28;100.00;96547.19;5022628;28;20226;-68
2022/12/08 01:25:26;;;;;;;18.17;15.67;;;;;;;-1.21;100.00;96550.91;5029373;28;20203;-70
2022/12/08 01:27:54;;;;;;;15.80;14.17;;;;;;;-1.19;100.00;96551.63;5016139;28;20234;-69
2022/12/08 01:30:22;;;;;;;16.53;14.80;;;;;;;-1.22;100.00;96549.25;5019440;28;21007;-70
2022/12/08 01:32:49;;;;;;;17.60;15.43;;;;;;;-1.24;100.00;96542.53;5028816;28;20218;-69
2022/12/08 01:35:17;;;;;;;17.30;15.47;;;;;;;-1.23;100.00;96545.03;4970935;28;20493;-74
2022/12/08 01:37:45;;;;;;;18.93;15.40;;;;;;;-1.24;100.00;96545.97;5024133;28;20716;-69
2022/12/08 01:40:14;;;;;;;19.77;14.33;;;;;;;-1.26;100.00;96549.63;5025883;28;20798;-71
2022/12/08 01:42:42;;;;;;;18.83;15.87;;;;;;;-1.23;100.00;96537.22;5031303;28;20255;-73
2022/12/08 01:45:14;;;;;;;19.90;16.43;;;;;;;-1.19;100.00;96532.56;4996771;28;20278;-69
2022/12/08 01:47:44;;;;;;;23.17;15.90;;;;;;;-1.21;100.00;96539.69;5035160;28;20563;-71
2022/12/08 01:50:13;;;;;;;20.40;17.27;;;;;;;-1.22;100.00;96538.88;5023724;28;20430;-70
2022/12/08 01:52:44;;;;;;;19.97;15.83;;;;;;;-1.22;100.00;96525.88;4973866;28;20204;-68
2022/12/08 01:55:16;;;;;;;18.73;15.47;;;;;;;-1.18;100.00;96529.03;5023814;28;20264;-70
2022/12/08 01:57:47;;;;;;;19.77;16.00;;;;;;;-1.17;100.00;96531.50;5026064;28;20231;-71
2022/12/08 02:00:17;;;;;;;19.73;16.20;;;;;;;-1.20;100.00;96520.53;4997819;28;20950;-72
2022/12/08 02:02:53;;;;;;;18.53;15.93;;;;;;;-1.22;100.00;96531.06;5028261;28;20595;-68
2022/12/08 02:05:23;;;;;;;17.80;15.83;;;;;;;-1.23;100.00;96525.97;5024542;28;20568;-70
2022/12/08 02:07:52;;;;;;;19.27;15.57;;;;;;;-1.21;100.00;96519.72;4977037;28;20208;-70
2022/12/08 02:10:23;;;;;;;18.50;15.63;;;;;;;-1.20;100.00;96517.94;5031995;28;20472;-70
2022/12/08 02:12:54;;;;;;;17.43;15.53;;;;;;;-1.25;100.00;96520.09;4932143;28;20818;-72
2022/12/08 02:15:26;;;;;;;21.23;16.20;;;;;;;-1.21;100.00;96509.31;5025470;28;20218;-71
2022/12/08 02:18:01;;;;;;;18.07;15.37;;;;;;;-1.20;100.00;96508.38;4971058;28;22662;-72
2022/12/08 02:20:45;;;;;;;18.23;16.33;;;;;;;-1.17;100.00;96497.72;5021920;28;20203;-70
2022/12/08 02:23:22;;;;;;;18.37;15.37;;;;;;;-1.19;100.00;96503.97;5025583;28;20224;-71
2022/12/08 02:26:06;;;;;;;19.90;15.13;;;;;;;-1.22;100.00;96501.63;4977279;28;21033;-71
2022/12/08 02:29:13;;;;;;;17.67;15.77;;;;;;;-1.26;100.00;96506.28;5026200;28;20375;-70
2022/12/08 02:31:51;;;;;;;20.67;15.47;;;;;;;-1.24;100.00;96496.56;5023325;28;20207;-70
2022/12/08 02:34:27;;;;;;;21.00;16.90;;;;;;;-1.29;100.00;96483.16;4973573;28;20463;-72
2022/12/08 02:37:00;;;;;;;21.63;16.87;;;;;;;-1.31;100.00;96487.66;5015075;28;20515;-70
2022/12/08 02:39:35;;;;;;;20.00;16.33;;;;;;;-1.32;100.00;96486.81;5025204;28;20649;-71
2022/12/08 02:42:09;;;;;;;18.20;16.10;;;;;;;-1.32;100.00;96493.78;4975974;28;20735;-73
2022/12/08 02:44:39;;;;;;;19.57;16.80;;;;;;;-1.30;100.00;96491.91;5020849;28;20207;-71
2022/12/08 02:47:09;;;;;;;19.70;17.30;;;;;;;-1.27;100.00;96488.19;5021980;28;20682;-72
2022/12/08 02:49:39;;;;;;;18.30;16.33;;;;;;;-1.33;100.00;96477.38;4972266;28;20252;-68
2022/12/08 02:52:28;;;;;;;17.83;16.03;;;;;;;-1.35;100.00;96476.66;5020446;28;20201;-72
2022/12/08 02:54:57;;;;;;;19.17;16.73;;;;;;;-1.38;100.00;96483.88;5020709;28;20226;-72
2022/12/08 02:57:31;;;;;;;18.87;16.87;;;;;;;-1.39;100.00;96475.28;4972101;28;20231;-70
2022/12/08 03:00:07;;;;;;;25.67;18.73;;;;;;;-1.41;100.00;96477.19;5018479;28;20208;-70
2022/12/08 03:02:49;;;;;;;20.50;16.33;;;;;;;-1.44;100.00;96469.63;5022399;28;20208;-70
2022/12/08 03:05:27;;;;;;;20.23;16.63;;;;;;;-1.49;100.00;96466.59;5001455;28;20610;-72
2022/12/08 03:08:00;;;;;;;21.77;17.83;;;;;;;-1.52;100.00;96464.22;5019875;28;20208;-69
2022/12/08 03:10:32;;;;;;;20.37;16.73;;;;;;;-1.53;100.00;96466.00;5029775;28;20654;-69
2022/12/08 03:13:04;;;;;;;20.50;18.30;;;;;;;-1.56;100.00;96460.22;4965698;28;20474;-71
2022/12/08 03:15:32;;;;;;;20.60;17.97;;;;;;;-1.56;100.00;96457.63;5023089;28;20210;-69
2022/12/08 03:18:00;;;;;;;24.27;19.13;;;;;;;-1.58;100.00;96456.94;5021233;28;20626;-70
2022/12/08 03:20:31;;;;;;;21.67;18.33;;;;;;;-1.61;100.00;96452.84;5016036;28;20200;-68
2022/12/08 03:23:00;;;;;;;20.73;18.60;;;;;;;-1.57;100.00;96451.63;5009014;28;20409;-70
2022/12/08 03:25:30;;;;;;;21.80;17.87;;;;;;;-1.57;100.00;96451.63;5025982;28;20575;-70
2022/12/08 03:27:59;;;;;;;20.00;16.93;;;;;;;-1.55;100.00;96454.09;4978604;28;22554;-70
2022/12/08 03:30:27;;;;;;;20.80;17.17;;;;;;;-1.55;100.00;96447.13;5003265;28;20205;-69
2022/12/08 03:32:59;;;;;;;20.83;17.47;;;;;;;-1.53;100.00;96442.63;4988427;28;20432;-70
2022/12/08 03:35:31;;;;;;;21.77;18.70;;;;;;;-1.50;100.00;96447.56;5022825;28;20614;-68
2022/12/08 03:38:03;;;;;;;20.03;17.30;;;;;;;-1.52;100.00;96444.28;4993740;28;20608;-69
2022/12/08 03:40:31;;;;;;;21.50;19.20;;;;;;;-1.52;100.00;96444.28;5023504;28;20207;-70
2022/12/08 03:42:59;;;;;;;25.53;19.30;;;;;;;-1.48;100.00;96443.06;5026065;28;20785;-70
2022/12/08 03:45:26;;;;;;;20.77;18.20;;;;;;;-1.51;100.00;96438.13;4968323;28;20207;-70
2022/12/08 03:47:54;;;;;;;22.20;18.10;;;;;;;-1.44;100.00;96443.66;5024131;28;20294;-69
2022/12/08 03:50:21;;;;;;;21.90;18.77;;;;;;;-1.43;100.00;96445.28;5018002;28;20207;-70
2022/12/08 03:52:51;;;;;;;20.63;18.47;;;;;;;-1.38;100.00;96453.53;4991210;28;20423;-72
2022/12/08 03:55:20;;;;;;;21.47;18.77;;;;;;;-1.31;100.00;96448.66;5024619;28;20263;-68
2022/12/08 03:57:47;;;;;;;21.03;17.97;;;;;;;-1.33;100.00;96442.75;5025244;28;20438;-71
2022/12/08 04:00:16;;;;;;;22.10;17.40;;;;;;;-1.30;100.00;96445.09;4973225;28;20219;-71
2022/12/08 04:02:44;;;;;;;21.77;17.70;;;;;;;-1.27;100.00;96439.66;5024846;28;20219;-71
2022/12/08 04:05:12;;;;;;;22.10;18.27;;;;;;;-1.24;100.00;96447.19;5024256;28;20591;-71
2022/12/08 04:07:39;;;;;;;21.97;19.07;;;;;;;-1.17;100.00;96435.31;5020303;28;20912;-72
2022/12/08 04:10:10;;;;;;;22.67;19.10;;;;;;;-1.13;100.00;96437.66;4997582;28;20215;-71
2022/12/08 04:12:37;;;;;;;20.13;17.47;;;;;;;-1.09;100.00;96433.84;5024779;28;20413;-71
2022/12/08 04:15:06;;;;;;;19.87;17.63;;;;;;;-1.19;100.00;96439.00;4975750;28;20211;-68
2022/12/08 04:17:33;;;;;;;24.07;16.97;;;;;;;-1.27;100.00;96437.06;5024295;28;20235;-69
2022/12/08 04:20:01;;;;;;;21.27;18.13;;;;;;;-1.24;100.00;96433.34;4935184;28;20211;-70
2022/12/08 04:22:29;;;;;;;19.63;17.57;;;;;;;-1.16;100.00;96436.13;5021243;28;20614;-69
2022/12/08 04:24:57;;;;;;;19.67;17.17;;;;;;;-1.04;100.00;96444.69;4994452;28;20228;-70
2022/12/08 04:27:26;;;;;;;22.73;16.60;;;;;;;-1.07;100.00;96434.53;5025082;28;20461;-71
2022/12/08 04:29:54;;;;;;;21.27;18.10;;;;;;;-1.03;100.00;96443.72;5025101;28;20212;-71
2022/12/08 04:32:22;;;;;;;20.87;17.57;;;;;;;-1.03;100.00;96433.31;5008715;28;20501;-69
2022/12/08 04:34:50;;;;;;;23.50;17.60;;;;;;;-0.96;100.00;96438.84;4965181;28;20446;-71
2022/12/08 04:37:17;;;;;;;20.33;17.80;;;;;;;-1.08;100.00;96438.94;5024366;28;20219;-70
2022/12/08 04:39:45;;;;;;;21.10;17.50;;;;;;;-1.17;100.00;96430.13;4994427;28;20218;-71
2022/12/08 04:42:13;;;;;;;20.63;17.00;;;;;;;-1.10;100.00;96434.78;5013287;28;20670;-70
2022/12/08 04:44:42;;;;;;;21.87;17.30;;;;;;;-0.99;100.00;96439.09;5028088;28;20323;-71
2022/12/08 04:47:09;;;;;;;20.70;16.97;;;;;;;-1.05;100.00;96441.28;5031774;28;20215;-71
2022/12/08 04:49:37;;;;;;;18.83;15.83;;;;;;;-1.07;100.00;96434.53;4946732;28;20646;-70
2022/12/08 04:52:05;;;;;;;21.10;15.90;;;;;;;-0.94;100.00;96442.13;5021631;28;20536;-70
2022/12/08 04:54:33;;;;;;;20.27;16.60;;;;;;;-1.05;100.00;96438.66;5027478;28;20242;-70
2022/12/08 04:57:00;;;;;;;18.23;15.47;;;;;;;-0.98;100.00;96433.75;5000486;28;20235;-70
2022/12/08 04:59:28;;;;;;;19.13;15.93;;;;;;;-0.92;100.00;96442.81;5028057;28;20442;-69
2022/12/08 05:01:57;;;;;;;18.77;15.93;;;;;;;-0.84;100.00;96435.19;5024630;28;20596;-70
2022/12/08 05:04:25;;;;;;;18.90;16.53;;;;;;;-0.88;100.00;96439.00;4978985;28;20726;-69
2022/12/08 05:06:52;;;;;;;19.77;16.50;;;;;;;-0.83;100.00;96436.03;5021126;28;20878;-70
2022/12/08 05:09:20;;;;;;;17.63;15.00;;;;;;;-0.92;100.00;96438.47;5030916;28;20203;-69
2022/12/08 05:11:47;;;;;;;16.90;15.10;;;;;;;-1.05;100.00;96437.84;5001313;28;20222;-69
2022/12/08 05:14:16;;;;;;;17.63;15.83;;;;;;;-1.19;100.00;96434.63;4999252;28;20213;-69
2022/12/08 05:16:45;;;;;;;18.00;15.83;;;;;;;-1.31;100.00;96430.47;5025422;28;20890;-72
2022/12/08 05:19:14;;;;;;;16.10;14.43;;;;;;;-1.43;100.00;96423.66;5029211;28;20200;-72
2022/12/08 05:21:43;;;;;;;17.50;15.60;;;;;;;-1.55;100.00;96417.72;4986229;28;21062;-72
2022/12/08 05:24:10;;;;;;;18.57;16.63;;;;;;;-1.68;100.00;96416.13;5032872;28;20223;-71
2022/12/08 05:26:38;;;;;;;17.53;15.67;;;;;;;-1.77;100.00;96419.50;5027828;28;20345;-72
2022/12/08 05:29:06;;;;;;;18.63;16.47;;;;;;;-1.82;100.00;96416.44;5002904;28;20218;-70
2022/12/08 05:31:33;;;;;;;15.47;13.87;;;;;;;-1.87;100.00;96416.81;5021784;28;20214;-71
2022/12/08 05:34:01;;;;;;;18.43;15.17;;;;;;;-1.97;100.00;96402.94;5030713;28;20203;-71
2022/12/08 05:36:31;;;;;;;17.17;15.37;;;;;;;-1.99;100.00;96410.03;4926598;28;21210;-69
2022/12/08 05:38:59;;;;;;;18.27;16.37;;;;;;;-2.00;100.00;96416.19;5008209;28;20211;-71
2022/12/08 05:41:27;;;;;;;20.17;16.73;;;;;;;-2.02;100.00;96411.09;5007756;28;20203;-68
2022/12/08 05:43:54;;;;;;;17.97;14.83;;;;;;;-2.01;100.00;96414.53;5005574;28;20222;-72
2022/12/08 05:46:22;;;;;;;18.03;16.17;;;;;;;-2.07;100.00;96414.06;5023002;28;20219;-70
2022/12/08 05:48:50;;;;;;;18.50;15.83;;;;;;;-2.07;100.00;96411.47;5035047;28;20229;-70
2022/12/08 05:51:19;;;;;;;21.77;16.43;;;;;;;-2.11;100.00;96410.06;4983165;28;20678;-72
2022/12/08 05:53:49;;;;;;;17.43;14.27;;;;;;;-2.15;100.00;96415.63;5002319;28;20326;-71
2022/12/08 05:56:17;;;;;;;17.80;15.53;;;;;;;-2.15;100.00;96416.44;5026852;28;20485;-70
2022/12/08 05:58:45;;;;;;;17.20;15.40;;;;;;;-2.16;100.00;96414.00;5007627;28;20429;-71
2022/12/08 06:01:19;;;;;;;17.83;15.63;;;;;;;-2.21;100.00;96412.59;5004135;28;20215;-69
2022/12/08 06:03:47;;;;;;;19.10;16.40;;;;;;;-2.25;100.00;96405.16;5030625;28;20206;-72
2022/12/08 06:06:14;;;;;;;18.50;15.70;;;;;;;-2.29;100.00;96409.75;4983330;28;20489;-71
2022/12/08 06:08:42;;;;;;;22.17;16.87;;;;;;;-2.34;100.00;96409.31;4996796;28;20728;-71
2022/12/08 06:11:17;;;;;;;21.43;17.60;;;;;;;-2.39;100.00;96412.28;5023933;28;20203;-70
2022/12/08 06:13:45;;;;;;;21.53;16.30;;;;;;;-2.41;100.00;96402.97;5004773;28;20397;-70
2022/12/08 06:16:12;;;;;;;21.33;17.97;;;;;;;-2.49;100.00;96401.81;4994821;28;20227;-71
2022/12/08 06:18:40;;;;;;;20.17;15.23;;;;;;;-2.52;100.00;96399.47;5025267;28;20207;-72
2022/12/08 06:21:10;;;;;;;20.60;17.27;;;;;;;-2.56;100.00;96394.63;5024443;28;20211;-71
2022/12/08 06:23:38;;;;;;;22.17;16.93;;;;;;;-2.55;100.00;96399.72;4989810;28;20211;-71
2022/12/08 06:26:08;;;;;;;22.80;16.90;;;;;;;-2.56;100.00;96403.25;4949545;28;20761;-69
2022/12/08 06:28:38;;;;;;;21.83;17.17;;;;;;;-2.60;100.00;96403.59;4980199;28;20588;-69
2022/12/08 06:31:08;;;;;;;23.73;17.73;;;;;;;-2.65;100.00;96403.97;5027368;28;20219;-70
2022/12/08 06:33:36;;;;;;;20.50;17.40;;;;;;;-2.65;100.00;96415.16;5003275;28;20215;-72
2022/12/08 06:36:04;;;;;;;24.77;18.37;;;;;;;-2.70;100.00;96412.09;4997871;28;20501;-71
2022/12/08 06:38:31;;;;;;;20.77;18.00;;;;;;;-2.78;100.00;96407.50;5021166;28;20212;-70
2022/12/08 06:40:59;;;;;;;21.03;16.97;;;;;;;-2.77;100.00;96411.75;5026478;28;20315;-72
2022/12/08 06:43:27;;;;;;;25.00;17.67;;;;;;;-2.76;100.00;96410.00;4985464;28;20485;-72
2022/12/08 06:45:56;;;;;;;25.40;19.50;;;;;;;-2.77;100.00;96413.53;5016961;28;20512;-72
2022/12/08 06:48:24;;;;;;;27.17;18.77;;;;;;;-2.76;100.00;96410.81;5021586;28;20439;-72
2022/12/08 06:50:51;;;;;;;27.57;19.13;;;;;;;-2.76;100.00;96410.00;4971340;28;20735;-73
2022/12/08 06:53:20;;;;;;;22.83;19.03;;;;;;;-2.74;100.00;96412.47;5022489;28;20966;-73
2022/12/08 06:55:52;;;;;;;22.10;17.93;;;;;;;-2.74;100.00;96422.81;5022842;28;20595;-72
2022/12/08 06:58:27;;;;;;;22.10;18.67;;;;;;;-2.78;100.00;96423.06;4976635;28;20216;-70
2022/12/08 07:00:55;;;;;;;24.97;18.10;;;;;;;-2.74;100.00;96417.66;5024055;28;20425;-71
2022/12/08 07:03:23;;;;;;;24.87;18.97;;;;;;;-2.71;100.00;96418.25;5028477;28;20500;-71
2022/12/08 07:05:55;;;;;;;26.90;19.97;;;;;;;-2.66;100.00;96418.69;4972238;28;21314;-73
2022/12/08 07:08:30;;;;;;;24.80;19.17;;;;;;;-2.65;100.00;96417.75;5024623;28;20196;-73
2022/12/08 07:10:57;;;;;;;25.20;20.17;;;;;;;-2.57;100.00;96424.09;5029997;28;20663;-72
2022/12/08 07:13:25;;;;;;;28.87;22.00;;;;;;;-2.56;100.00;96423.16;4979214;28;20758;-70
2022/12/08 07:15:53;;;;;;;26.53;19.77;;;;;;;-2.52;100.00;96424.56;5021863;28;20227;-72
2022/12/08 07:18:22;;;;;;;26.00;21.33;;;;;;;-2.46;100.00;96418.91;5034180;28;20531;-70
2022/12/08 07:20:49;;;;;;;28.87;20.87;;;;;;;-2.37;100.00;96425.97;4973798;28;21386;-69
2022/12/08 07:23:17;;;;;;;26.37;20.17;;;;;;;-2.29;100.00;96421.94;5024374;28;20203;-70
2022/12/08 07:25:44;;;;;;;29.27;21.37;;;;;;;-2.27;100.00;96425.22;5029501;28;20241;-70
2022/12/08 07:28:12;;;;;;;27.53;21.03;;;;;;;-2.26;100.00;96416.50;4980205;28;20223;-70
2022/12/08 07:30:40;;;;;;;31.30;22.90;;;;;;;-2.29;100.00;96421.94;5025550;28;20627;-69
2022/12/08 07:33:07;;;;;;;32.97;23.13;;;;;;;-2.31;100.00;96418.63;5026541;28;20219;-71
2022/12/08 07:35:37;;;;;;;30.57;21.37;;;;;;;-2.33;100.00;96411.78;5013864;28;20210;-71
2022/12/08 07:38:04;;;;;;;33.80;24.63;;;;;;;-2.24;100.00;96414.59;4982499;28;20208;-68
2022/12/08 07:40:32;;;;;;;33.60;24.87;;;;;;;-2.24;100.00;96415.44;4998271;28;20608;-67
2022/12/08 07:42:59;;;;;;;28.90;24.40;;;;;;;-2.26;100.00;96414.75;5027444;28;20468;-71
2022/12/08 07:45:27;;;;;;;38.33;25.10;;;;;;;-2.30;100.00;96409.91;4975062;28;20603;-70
2022/12/08 07:47:58;;;;;;;35.60;23.80;;;;;;;-2.33;100.00;96418.75;5025378;28;20450;-73
2022/12/08 07:50:26;;;;;;;47.23;24.70;;;;;;;-2.35;100.00;96415.44;5027884;28;20200;-70
2022/12/08 07:52:55;;;;;;;32.17;24.23;;;;;;;-2.33;100.00;96418.75;4966783;28;20213;-73
2022/12/08 07:55:22;;;;;;;44.63;24.80;;;;;;;-2.39;100.00;96409.69;5027176;28;20214;-71
2022/12/08 07:57:50;;;;;;;65.63;25.90;;;;;;;-2.44;100.00;96417.03;5021482;28;20204;-70
2022/12/08 08:00:18;;;;;;;50.40;24.83;;;;;;;-2.42;100.00;96411.69;4983267;28;20583;-70
2022/12/08 08:02:46;;;;;;;30.23;24.13;;;;;;;-2.42;100.00;96409.09;5025556;28;20676;-72
2022/12/08 08:05:14;;;;;;;34.17;24.17;;;;;;;-2.41;100.00;96402.97;5025950;28;21179;-72
2022/12/08 08:07:42;;;;;;;34.60;25.13;;;;;;;-2.42;100.00;96414.28;4992827;28;20226;-69
2022/12/08 08:10:12;;;;;;;33.07;23.30;;;;;;;-2.40;100.00;96415.84;4996813;28;20469;-71
2022/12/08 08:12:40;;;;;;;37.10;25.37;;;;;;;-2.36;100.00;96417.22;5032371;28;20446;-71
2022/12/08 08:15:08;;;;;;;35.43;24.57;;;;;;;-2.23;100.00;96424.03;4982409;28;20996;-71
2022/12/08 08:17:37;;;;;;;41.63;26.23;;;;;;;-2.12;100.00;96423.19;5026470;28;20246;-70
2022/12/08 08:20:06;;;;;;;35.13;25.43;;;;;;;-1.92;100.00;96416.38;5029764;28;20804;-71
2022/12/08 08:22:35;;;;;;;39.47;26.53;;;;;;;-2.02;100.00;96415.47;5011903;28;20470;-70
2022/12/08 08:25:04;;;;;;;33.97;24.17;;;;;;;-2.06;100.00;96414.88;4999018;28;20231;-73
2022/12/08 08:27:33;;;;;;;34.47;24.57;;;;;;;-2.15;100.00;96413.03;5029641;28;20230;-70
2022/12/08 08:30:01;;;;;;;34.67;25.03;;;;;;;-2.14;100.00;96418.09;4981316;28;20542;-71
2022/12/08 08:32:32;;;;;;;33.33;23.77;;;;;;;-2.08;100.00;96417.63;5036066;28;21012;-71
2022/12/08 08:35:00;;;;;;;32.63;25.33;;;;;;;-1.98;100.00;96422.06;4956272;28;20258;-69
2022/12/08 08:37:28;;;;;;;37.93;26.27;;;;;;;-2.06;100.00;96418.31;5024446;28;20437;-72
2022/12/08 08:39:56;;;;;;;33.73;24.80;;;;;;;-2.05;100.00;96419.13;5001384;28;20221;-70
2022/12/08 08:42:24;;;;;;;33.90;23.63;;;;;;;-1.90;100.00;96417.06;5023022;28;20203;-71
2022/12/08 08:44:52;;;;;;;33.43;24.07;;;;;;;-1.99;100.00;96420.41;5022774;28;20204;-71
2022/12/08 08:47:20;;;;;;;31.43;24.00;;;;;;;-2.14;100.00;96419.88;5027838;28;20231;-70
2022/12/08 08:49:48;;;;;;;37.30;26.47;;;;;;;-2.13;100.00;96413.75;4991864;28;20214;-71
2022/12/08 08:52:15;;;;;;;38.53;26.47;;;;;;;-2.08;100.00;96417.63;5019677;28;20205;-71
2022/12/08 08:54:43;;;;;;;48.00;25.87;;;;;;;-2.06;100.00;96414.88;5030100;28;20530;-72
2022/12/08 08:57:10;;;;;;;72.87;27.63;;;;;;;-2.19;100.00;96417.66;4996102;28;20235;-71
2022/12/08 08:59:38;;;;;;;54.50;27.77;;;;;;;-2.09;100.00;96418.53;5031944;28;20322;-72
2022/12/08 09:02:11;;;;;;;68.33;28.10;;;;;;;-2.02;100.00;96420.66;5027800;28;20957;-71
2022/12/08 09:04:38;;;;;;;45.10;26.70;;;;;;;-1.93;100.00;96430.31;4982481;28;20425;-70
2022/12/08 09:07:06;;;;;;;68.60;26.00;;;;;;;-1.91;100.00;96423.22;5018155;28;20646;-70
2022/12/08 09:09:34;;;;;;;56.43;28.97;;;;;;;-1.91;100.00;96420.63;5029610;28;20227;-71
2022/12/08 09:12:01;;;;;;;52.03;27.27;;;;;;;-1.92;100.00;96426.75;5005823;28;20824;-70
2022/12/08 09:14:29;;;;;;;38.53;25.30;;;;;;;-1.79;100.00;96417.00;5031473;28;21117;-73
2022/12/08 09:16:56;;;;;;;45.17;26.23;;;;;;;-1.78;100.00;96420.44;5000589;28;20219;-73
2022/12/08 09:19:25;;;;;;;59.50;30.97;;;;;;;-1.79;100.00;96419.59;4985232;28;20218;-72
2022/12/08 09:21:53;;;;;;;47.13;28.17;;;;;;;-1.75;100.00;96421.00;4994810;28;20981;-72
2022/12/08 09:24:21;;;;;;;75.27;32.57;;;;;;;-1.78;100.00;96426.44;5035198;28;20200;-72
2022/12/08 09:26:49;;;;;;;48.03;30.33;;;;;;;-1.76;100.00;96431.53;5000268;28;20329;-70
2022/12/08 09:29:17;;;;;;;54.30;29.27;;;;;;;-1.70;100.00;96420.63;5031255;28;20207;-72
2022/12/08 09:31:45;;;;;;;60.97;31.07;;;;;;;-1.67;100.00;96420.38;5028163;28;20199;-72
2022/12/08 09:34:13;;;;;;;51.30;30.90;;;;;;;-1.58;100.00;96413.59;4977723;28;20454;-72
2022/12/08 09:36:42;;;;;;;43.83;28.63;;;;;;;-1.70;100.00;96407.66;4999515;28;20236;-70
2022/12/08 09:39:10;;;;;;;43.73;29.60;;;;;;;-1.58;100.00;96410.16;5024074;28;20208;-73
2022/12/08 09:41:44;;;;;;;38.73;28.07;;;;;;;-1.50;100.00;96398.19;4996430;28;20225;-73
2022/12/08 09:44:38;;;;;;;39.37;28.37;;;;;;;-1.34;100.00;96404.69;5036264;28;20287;-72
2022/12/08 09:47:10;;;;;;;36.93;28.63;;;;;;;-1.30;100.00;96403.53;5024086;28;20243;-71
2022/12/08 09:49:39;;;;;;;34.33;26.17;;;;;;;-1.15;100.00;96398.78;4979877;28;20750;-73
2022/12/08 09:52:13;;;;;;;37.27;26.90;;;;;;;-0.99;100.00;96393.09;5020363;28;20200;-72
2022/12/08 09:54:41;;;;;;;35.23;27.10;;;;;;;-0.88;100.00;96394.78;5029371;28;20215;-73
2022/12/08 09:57:14;;;;;;;36.13;26.63;;;;;;;-0.81;100.00;96387.28;4999549;28;20238;-72
2022/12/08 09:59:45;;;;;;;32.47;25.90;;;;;;;-0.73;100.00;96383.09;5027087;28;20737;-72
2022/12/08 10:02:21;;;;;;;31.10;24.93;;;;;;;-0.63;100.00;96383.09;5015493;28;20211;-72
2022/12/08 10:04:49;;;;;;;32.70;25.40;;;;;;;-0.53;100.00;96385.72;4983185;28;21843;-68
2022/12/08 10:07:21;;;;;;;32.00;24.13;;;;;;;-0.63;100.00;96380.47;4996548;28;20227;-73
2022/12/08 10:09:55;;;;;;;30.40;23.10;;;;;;;-0.56;100.00;96372.97;5025870;28;20776;-71
2022/12/08 10:12:27;;;;;;;28.00;23.37;;;;;;;-0.64;100.00;96368.44;4992749;28;20638;-72
2022/12/08 10:14:58;;;;;;;29.67;23.80;;;;;;;-0.56;100.00;96369.56;5021251;28;20222;-71
2022/12/08 10:17:27;;;;;;;27.50;22.27;;;;;;;-0.67;100.00;96360.88;5024625;28;20299;-69
2022/12/08 10:19:59;;;;;;;26.27;23.20;;;;;;;-0.58;100.00;96359.28;4973372;28;21942;-70
2022/12/08 10:22:34;;;;;;;27.73;22.63;;;;;;;-0.69;100.00;96354.19;4994109;28;20436;-71
2022/12/08 10:25:13;;;;;;;27.77;23.27;;;;;;;-0.71;100.00;96354.31;5027646;28;20558;-74
2022/12/08 10:27:41;;;;;;;25.07;22.23;;;;;;;-0.72;100.00;96352.66;4998322;28;20231;-73
2022/12/08 10:30:11;;;;;;;27.27;23.33;;;;;;;-0.51;100.00;96347.34;5030377;28;20207;-73
2022/12/08 10:32:39;;;;;;;29.60;23.83;;;;;;;-0.38;100.00;96352.31;5030129;28;20207;-71
2022/12/08 10:35:09;;;;;;;28.77;23.67;;;;;;;-0.33;100.00;96349.31;5019087;28;20212;-69
2022/12/08 10:37:39;;;;;;;29.40;24.00;;;;;;;-0.48;100.00;96351.50;4994392;28;20259;-70
2022/12/08 10:40:10;;;;;;;29.97;23.57;;;;;;;-0.56;100.00;96339.13;5027500;28;20203;-70
2022/12/08 10:42:40;;;;;;;27.37;22.90;;;;;;;-0.50;100.00;96333.38;4966604;28;20222;-69
2022/12/08 10:45:30;;;;;;;28.17;23.40;;;;;;;-0.18;100.00;96334.91;5012001;28;20338;-70
2022/12/08 10:48:00;;;;;;;26.33;20.77;;;;;;;-0.20;100.00;96338.59;5001202;28;20230;-68
2022/12/08 10:50:31;;;;;;;26.80;22.07;;;;;;;-0.02;100.00;96334.34;4998348;28;20199;-69
2022/12/08 10:53:01;;;;;;;22.57;19.93;;;;;;;-0.16;100.00;96322.56;5022177;28;20207;-71
2022/12/08 10:55:29;;;;;;;28.00;22.30;;;;;;;0.03;100.00;96328.75;5006170;28;20489;-69
2022/12/08 10:57:57;;;;;;;27.30;22.10;;;;;;;0.07;100.00;96324.91;4977731;28;20415;-69
2022/12/08 11:00:27;;;;;;;26.60;21.63;;;;;;;0.00;100.00;96323.81;5015344;28;20215;-70
2022/12/08 11:03:00;;;;;;;28.47;21.97;;;;;;;-0.01;100.00;96319.53;4992013;28;20209;-70
2022/12/08 11:05:33;;;;;;;26.83;21.60;;;;;;;0.21;100.00;96318.44;5026130;28;20721;-71
2022/12/08 11:08:03;;;;;;;27.70;22.37;;;;;;;0.13;100.00;96308.72;5001275;28;20432;-71
2022/12/08 11:10:34;;;;;;;32.87;23.23;;;;;;;0.15;100.00;96313.75;5028451;28;20207;-70
2022/12/08 11:13:04;;;;;;;27.80;23.57;;;;;;;0.09;100.00;96307.34;4976861;28;20905;-69
2022/12/08 11:15:36;;;;;;;26.50;22.40;;;;;;;0.01;100.00;96296.81;5015481;28;20667;-69
2022/12/08 11:18:10;;;;;;;32.73;25.00;;;;;;;-0.01;100.00;96296.09;5024588;28;20825;-69
2022/12/08 11:20:40;;;;;;;27.87;23.10;;;;;;;-0.03;100.00;96292.81;5013947;28;20199;-69
2022/12/08 11:23:22;;;;;;;28.93;22.07;;;;;;;0.14;100.00;96286.06;5024187;28;20214;-71
2022/12/08 11:25:50;;;;;;;26.83;21.13;;;;;;;0.23;100.00;96292.22;5021886;28;20223;-69